createdAt,value
2023-01-27T00:00:26.459Z,102319.88
2023-01-27T00:01:58.646Z,102313.66
2023-01-27T00:03:30.886Z,102315.38
2023-01-27T00:05:04.147Z,102319.72
2023-01-27T00:06:36.343Z,102311.16
2023-01-27T00:08:08.404Z,102317.13
2023-01-27T00:09:42.154Z,102306.84
2023-01-27T00:11:32.674Z,102315.56
2023-01-27T00:13:23.525Z,102313.94
2023-01-27T00:14:55.553Z,102313.06
2023-01-27T00:16:27.587Z,102312.97
2023-01-27T00:17:59.903Z,102312.91
2023-01-27T00:19:31.997Z,102308.56
2023-01-27T00:21:22.735Z,102313.72
2023-01-27T00:23:13.524Z,102313.88
2023-01-27T00:24:45.888Z,102306.84
2023-01-27T00:26:18.815Z,102308.75
2023-01-27T00:27:50.750Z,102313.19
2023-01-27T00:29:22.964Z,102307.88
2023-01-27T00:30:55.129Z,102314.81
2023-01-27T00:32:45.659Z,102316.47
2023-01-27T00:34:17.800Z,102315.63
2023-01-27T00:35:49.905Z,102318.22
2023-01-27T00:37:22.219Z,102314.00
2023-01-27T00:38:54.492Z,102317.47
2023-01-27T00:40:26.670Z,102312.22
2023-01-27T00:41:58.771Z,102310.59
2023-01-27T00:43:30.924Z,102316.66
2023-01-27T00:45:21.478Z,102308.06
2023-01-27T00:46:53.651Z,102317.47
2023-01-27T00:48:25.719Z,102314.81
2023-01-27T00:49:57.886Z,102312.22
2023-01-27T00:51:29.935Z,102313.06
2023-01-27T00:53:05.683Z,102311.28
2023-01-27T00:54:37.738Z,102315.56
2023-01-27T00:56:10.014Z,102317.28
2023-01-27T00:57:42.420Z,102315.63
2023-01-27T00:59:14.633Z,102313.88
2023-01-27T01:00:46.739Z,102309.56
2023-01-27T01:03:11.430Z,102315.78
2023-01-27T01:04:17.221Z,102318.28
2023-01-27T01:05:51.754Z,102317.41
2023-01-27T01:07:24.007Z,102322.59
2023-01-27T01:08:58.907Z,102322.59
2023-01-27T01:10:31.194Z,102322.53
2023-01-27T01:12:06.542Z,102321.75
2023-01-27T01:13:38.690Z,102326.06
2023-01-27T01:15:11.525Z,102325.31
2023-01-27T01:16:46.139Z,102329.59
2023-01-27T01:18:21.107Z,102329.72
2023-01-27T01:19:53.336Z,102333.97
2023-01-27T01:21:25.685Z,102329.59
2023-01-27T01:22:58.111Z,102342.53
2023-01-27T01:24:37.852Z,102335.72
2023-01-27T01:26:25.250Z,102340.91
2023-01-27T01:28:07.648Z,102341.78
2023-01-27T01:29:39.780Z,102343.56
2023-01-27T01:31:19.223Z,102333.13
2023-01-27T01:32:51.525Z,102336.59
2023-01-27T01:34:23.733Z,102344.38
2023-01-27T01:35:55.938Z,102349.47
2023-01-27T01:37:32.565Z,102348.66
2023-01-27T01:39:04.970Z,102351.25
2023-01-27T01:40:43.408Z,102354.59
2023-01-27T01:42:15.605Z,102352.81
2023-01-27T01:43:50.234Z,102358.94
2023-01-27T01:45:36.515Z,102359.78
2023-01-27T01:47:15.745Z,102362.28
2023-01-27T01:49:00.394Z,102354.59
2023-01-27T01:50:34.196Z,102347.72
2023-01-27T01:52:11.898Z,102351.06
2023-01-27T01:54:03.465Z,102340.69
2023-01-27T01:55:37.833Z,102357.88
2023-01-27T01:57:23.456Z,102349.16
2023-01-27T01:58:57.233Z,102353.44
2023-01-27T02:00:29.357Z,102355.13
2023-01-27T02:02:04.667Z,102363.03
2023-01-27T02:03:38.800Z,102355.34
2023-01-27T02:05:15.987Z,102351.94
2023-01-27T02:06:56.342Z,102359.69
2023-01-27T02:08:33.300Z,102358.94
2023-01-27T02:10:08.024Z,102358.06
2023-01-27T02:11:43.202Z,102362.28
2023-01-27T02:13:15.362Z,102364.81
2023-01-27T02:14:47.750Z,102367.31
2023-01-27T02:16:19.971Z,102370.13
2023-01-27T02:17:52.241Z,102368.50
2023-01-27T02:19:50.442Z,102368.56
2023-01-27T02:21:30.687Z,102364.94
2023-01-27T02:23:16.078Z,102366.59
2023-01-27T02:24:54.485Z,102366.66
2023-01-27T02:26:31.494Z,102371.00
2023-01-27T02:28:08.294Z,102369.16
2023-01-27T02:29:40.673Z,102367.53
2023-01-27T02:31:12.989Z,102373.59
2023-01-27T02:32:45.247Z,102377.81
2023-01-27T02:34:19.146Z,102373.47
2023-01-27T02:36:10.457Z,102371.75
2023-01-27T02:37:47.920Z,102371.75
2023-01-27T02:39:22.870Z,102369.84
2023-01-27T02:40:58.391Z,102371.47
2023-01-27T02:42:30.674Z,102368.00
2023-01-27T02:44:03.238Z,102370.59
2023-01-27T02:45:39.542Z,102366.31
2023-01-27T02:47:21.285Z,102364.53
2023-01-27T02:48:53.787Z,102358.53
2023-01-27T02:50:26.105Z,102364.53
2023-01-27T02:51:58.220Z,102371.47
2023-01-27T02:53:30.719Z,102371.41
2023-01-27T02:55:03.748Z,102365.34
2023-01-27T02:56:35.877Z,102368.97
2023-01-27T02:58:08.457Z,102377.47
2023-01-27T02:59:50.658Z,102369.56
2023-01-27T03:01:24.577Z,102371.28
2023-01-27T03:02:56.990Z,102377.34
2023-01-27T03:04:33.501Z,102372.09
2023-01-27T03:06:09.245Z,102371.22
2023-01-27T03:07:42.263Z,102376.38
2023-01-27T03:09:17.406Z,102373.94
2023-01-27T03:10:53.701Z,102372.09
2023-01-27T03:12:29.336Z,102379.84
2023-01-27T03:14:06.743Z,102376.38
2023-01-27T03:16:01.250Z,102380.69
2023-01-27T03:17:54.240Z,102379.84
2023-01-27T03:19:29.095Z,102376.47
2023-01-27T03:21:05.098Z,102374.63
2023-01-27T03:22:37.685Z,102377.28
2023-01-27T03:24:10.064Z,102382.50
2023-01-27T03:25:43.336Z,102384.28
2023-01-27T03:27:15.364Z,102387.69
2023-01-27T03:31:08.438Z,102379.03
2023-01-27T03:32:54.661Z,102386.75
2023-01-27T03:34:53.499Z,102391.78
2023-01-27T03:36:53.458Z,102387.41
2023-01-27T03:38:46.810Z,102382.00
2023-01-27T03:40:37.706Z,102395.81
2023-01-27T03:42:28.344Z,102396.75
2023-01-27T03:44:22.282Z,102405.38
2023-01-27T03:46:13.267Z,102399.16
2023-01-27T03:47:45.550Z,102406.84
2023-01-27T03:49:17.660Z,102410.25
2023-01-27T03:50:53.441Z,102417.94
2023-01-27T03:52:34.505Z,102423.25
2023-01-27T03:54:07.032Z,102411.13
2023-01-27T03:55:41.735Z,102419.72
2023-01-27T03:57:14.138Z,102424.81
2023-01-27T03:58:48.154Z,102421.25
2023-01-27T04:00:21.520Z,102425.63
2023-01-27T04:02:15.592Z,102429.91
2023-01-27T04:04:06.888Z,102435.09
2023-01-27T04:05:57.435Z,102441.16
2023-01-27T04:07:29.497Z,102429.09
2023-01-27T04:09:02.034Z,102426.44
2023-01-27T04:10:34.081Z,102424.66
2023-01-27T04:12:10.195Z,102429.78
2023-01-27T04:13:42.376Z,102428.88
2023-01-27T04:15:15.682Z,102434.94
2023-01-27T04:16:48.360Z,102436.56
2023-01-27T04:18:20.544Z,102431.41
2023-01-27T04:19:52.733Z,102432.34
2023-01-27T04:21:28.065Z,102433.19
2023-01-27T04:23:00.387Z,102438.28
2023-01-27T04:24:34.644Z,102434.06
2023-01-27T04:26:09.103Z,102438.41
2023-01-27T04:27:42.593Z,102435.84
2023-01-27T04:29:18.271Z,102445.28
2023-01-27T04:30:50.757Z,102441.00
2023-01-27T04:32:32.408Z,102441.00
2023-01-27T04:34:08.566Z,102444.41
2023-01-27T04:35:47.789Z,102443.38
2023-01-27T04:37:32.794Z,102445.97
2023-01-27T04:39:18.653Z,102446.03
2023-01-27T04:41:08.764Z,102442.63
2023-01-27T04:43:03.719Z,102440.88
2023-01-27T04:47:17.130Z,102453.06
2023-01-27T04:48:49.164Z,102450.41
2023-01-27T04:50:21.166Z,102458.97
2023-01-27T04:51:55.892Z,102456.38
2023-01-27T04:53:35.518Z,102458.91
2023-01-27T04:55:08.075Z,102457.28
2023-01-27T04:56:44.570Z,102464.88
2023-01-27T04:58:33.556Z,102455.28
2023-01-27T05:00:08.139Z,102463.03
2023-01-27T05:01:41.663Z,102457.06
2023-01-27T05:03:13.824Z,102451.00
2023-01-27T05:04:45.972Z,102456.97
2023-01-27T05:06:18.087Z,102457.88
2023-01-27T05:07:50.160Z,102462.22
2023-01-27T05:09:22.135Z,102463.84
2023-01-27T05:10:54.345Z,102466.44
2023-01-27T05:12:26.499Z,102469.84
2023-01-27T05:13:58.516Z,102468.06
2023-01-27T05:15:30.767Z,102464.66
2023-01-27T05:17:04.096Z,102462.00
2023-01-27T05:18:36.503Z,102465.63
2023-01-27T05:20:09.624Z,102459.63
2023-01-27T05:21:43.506Z,102469.03
2023-01-27T05:23:34.052Z,102452.53
2023-01-27T05:25:06.668Z,102460.97
2023-01-27T05:26:41.369Z,102462.59
2023-01-27T05:28:13.564Z,102468.59
2023-01-27T05:29:45.704Z,102464.09
2023-01-27T05:31:20.091Z,102463.25
2023-01-27T05:32:52.180Z,102467.47
2023-01-27T05:34:24.488Z,102463.25
2023-01-27T05:35:59.406Z,102470.00
2023-01-27T05:37:34.629Z,102461.41
2023-01-27T05:39:08.919Z,102481.38
2023-01-27T05:40:44.347Z,102471.84
2023-01-27T05:42:16.599Z,102471.91
2023-01-27T05:43:53.166Z,102471.03
2023-01-27T05:45:28.721Z,102468.44
2023-01-27T05:47:03.235Z,102473.69
2023-01-27T05:48:43.066Z,102472.78
2023-01-27T05:50:15.699Z,102465.78
2023-01-27T05:51:47.798Z,102481.38
2023-01-27T05:53:20.049Z,102476.06
2023-01-27T05:54:52.321Z,102473.53
2023-01-27T05:56:25.853Z,102473.69
2023-01-27T05:57:58.140Z,102474.56
2023-01-27T05:59:30.281Z,102467.47
2023-01-27T06:01:12.461Z,102471.69
2023-01-27T06:02:44.506Z,102473.38
2023-01-27T06:04:17.179Z,102471.63
2023-01-27T06:05:58.522Z,102475.91
2023-01-27T06:07:30.727Z,102474.19
2023-01-27T06:09:03.142Z,102475.91
2023-01-27T06:10:37.526Z,102475.16
2023-01-27T06:12:12.642Z,102471.91
2023-01-27T06:13:45.211Z,102470.13
2023-01-27T06:15:17.246Z,102471.03
2023-01-27T06:16:50.006Z,102471.84
2023-01-27T06:18:22.909Z,102477.81
2023-01-27T06:19:55.084Z,102483.06
2023-01-27T06:21:30.420Z,102489.94
2023-01-27T06:23:02.703Z,102486.53
2023-01-27T06:24:35.113Z,102491.72
2023-01-27T06:26:16.529Z,102493.50
2023-01-27T06:27:48.798Z,102498.59
2023-01-27T06:29:22.372Z,102502.88
2023-01-27T06:30:54.634Z,102492.44
2023-01-27T06:32:27.120Z,102495.09
2023-01-27T06:33:59.365Z,102493.41
2023-01-27T06:35:32.460Z,102502.94
2023-01-27T06:37:04.919Z,102501.97
2023-01-27T06:38:37.810Z,102508.84
2023-01-27T06:40:12.007Z,102505.59
2023-01-27T06:41:51.036Z,102503.84
2023-01-27T06:43:23.499Z,102505.47
2023-01-27T06:44:56.289Z,102505.59
2023-01-27T06:46:30.694Z,102508.13
2023-01-27T06:48:02.912Z,102513.38
2023-01-27T06:49:35.216Z,102514.31
2023-01-27T06:51:14.224Z,102509.16
2023-01-27T06:52:46.956Z,102512.63
2023-01-27T06:54:19.109Z,102516.09
2023-01-27T06:55:59.128Z,102514.31
2023-01-27T06:57:31.471Z,102510.94
2023-01-27T06:59:05.234Z,102510.13
2023-01-27T07:00:38.099Z,102510.94
2023-01-27T07:02:13.704Z,102514.25
2023-01-27T07:03:45.874Z,102510.94
2023-01-27T07:05:18.022Z,102521.28
2023-01-27T07:06:50.425Z,102519.66
2023-01-27T07:08:24.892Z,102518.75
2023-01-27T07:09:57.178Z,102520.47
2023-01-27T07:11:29.317Z,102525.56
2023-01-27T07:13:09.526Z,102523.03
2023-01-27T07:14:41.773Z,102527.41
2023-01-27T07:16:14.101Z,102530.06
2023-01-27T07:17:48.648Z,102524.97
2023-01-27T07:19:21.014Z,102525.84
2023-01-27T07:20:53.371Z,102526.59
2023-01-27T07:22:25.550Z,102526.75
2023-01-27T07:23:59.068Z,102525.13
2023-01-27T07:25:32.841Z,102529.41
2023-01-27T07:27:05.170Z,102534.50
2023-01-27T07:28:37.397Z,102526.06
2023-01-27T07:30:13.280Z,102526.16
2023-01-27T07:31:45.713Z,102529.69
2023-01-27T07:33:17.964Z,102530.59
2023-01-27T07:34:51.335Z,102524.53
2023-01-27T07:36:23.864Z,102534.88
2023-01-27T07:37:57.934Z,102520.22
2023-01-27T07:39:32.833Z,102525.41
2023-01-27T07:41:06.446Z,102532.22
2023-01-27T07:42:38.831Z,102528.88
2023-01-27T07:44:11.306Z,102526.28
2023-01-27T07:45:49.259Z,102525.47
2023-01-27T07:47:22.170Z,102529.69
2023-01-27T07:48:54.187Z,102528.06
2023-01-27T07:50:26.919Z,102533.16
2023-01-27T07:51:59.213Z,102543.50
2023-01-27T07:53:31.439Z,102531.41
2023-01-27T07:55:03.662Z,102545.22
2023-01-27T07:56:38.478Z,102543.59
2023-01-27T07:58:11.141Z,102539.16
2023-01-27T07:59:43.391Z,102539.22
2023-01-27T08:01:15.705Z,102539.31
2023-01-27T08:02:54.673Z,102541.22
2023-01-27T08:04:27.056Z,102538.50
2023-01-27T08:05:59.224Z,102541.97
2023-01-27T08:07:33.959Z,102542.78
2023-01-27T08:09:06.523Z,102549.81
2023-01-27T08:10:38.679Z,102549.81
2023-01-27T08:12:11.047Z,102548.03
2023-01-27T08:13:43.561Z,102550.69
2023-01-27T08:15:18.899Z,102550.91
2023-01-27T08:16:51.455Z,102552.69
2023-01-27T08:18:23.900Z,102550.91
2023-01-27T08:19:56.127Z,102552.53
2023-01-27T08:21:33.214Z,102556.97
2023-01-27T08:23:05.483Z,102558.81
2023-01-27T08:24:38.481Z,102559.75
2023-01-27T08:26:11.370Z,102564.09
2023-01-27T08:27:51.110Z,102559.63
2023-01-27T08:29:23.268Z,102559.75
2023-01-27T08:30:55.659Z,102560.69
2023-01-27T08:32:27.972Z,102553.81
2023-01-27T08:34:00.371Z,102558.94
2023-01-27T08:35:35.518Z,102553.81
2023-01-27T08:37:08.150Z,102561.59
2023-01-27T08:38:41.334Z,102559.81
2023-01-27T08:40:14.182Z,102558.13
2023-01-27T08:41:46.670Z,102559.88
2023-01-27T08:43:22.915Z,102564.19
2023-01-27T08:44:55.119Z,102566.03
2023-01-27T08:46:29.532Z,102562.69
2023-01-27T08:48:04.835Z,102557.53
2023-01-27T08:49:37.090Z,102560.91
2023-01-27T08:51:11.276Z,102563.38
2023-01-27T08:52:43.603Z,102569.50
2023-01-27T08:54:15.646Z,102566.03
2023-01-27T08:55:48.324Z,102575.50
2023-01-27T08:57:20.485Z,102568.59
2023-01-27T08:58:52.843Z,102574.66
2023-01-27T09:00:25.162Z,102564.19
2023-01-27T09:02:02.894Z,102565.13
2023-01-27T09:03:37.935Z,102576.44
2023-01-27T09:05:10.166Z,102583.41
2023-01-27T09:06:42.551Z,102569.66
2023-01-27T09:08:16.203Z,102580.88
2023-01-27T09:09:49.657Z,102575.84
2023-01-27T09:11:22.774Z,102577.56
2023-01-27T09:12:55.270Z,102575.78
2023-01-27T09:14:27.583Z,102582.81
2023-01-27T09:16:01.404Z,102585.47
2023-01-27T09:17:33.626Z,102585.47
2023-01-27T09:19:06.200Z,102586.44
2023-01-27T09:20:38.456Z,102578.72
2023-01-27T09:22:10.603Z,102584.81
2023-01-27T09:23:42.772Z,102593.44
2023-01-27T09:25:16.672Z,102593.38
2023-01-27T09:26:48.918Z,102604.69
2023-01-27T09:28:21.000Z,102603.88
2023-01-27T09:29:53.148Z,102597.06
2023-01-27T09:31:25.382Z,102605.81
2023-01-27T09:33:01.815Z,102604.09
2023-01-27T09:34:34.039Z,102599.72
2023-01-27T09:36:12.616Z,102598.03
2023-01-27T09:37:55.838Z,102601.44
2023-01-27T09:39:30.076Z,102601.50
2023-01-27T09:41:27.055Z,102608.47
2023-01-27T09:42:59.862Z,102600.91
2023-01-27T09:44:56.743Z,102601.59
2023-01-27T09:46:38.118Z,102606.75
2023-01-27T09:48:22.060Z,102609.50
2023-01-27T09:50:24.773Z,102607.78
2023-01-27T09:52:05.392Z,102602.63
2023-01-27T09:53:53.022Z,102605.28
2023-01-27T09:56:05.629Z,102604.59
2023-01-27T09:57:42.211Z,102606.31
2023-01-27T09:59:21.219Z,102607.19
2023-01-27T10:01:10.193Z,102608.16
2023-01-27T10:03:00.682Z,102611.63
2023-01-27T10:04:44.715Z,102617.63
2023-01-27T10:06:41.969Z,102610.66
2023-01-27T10:08:43.448Z,102616.00
2023-01-27T10:10:28.581Z,102609.19
2023-01-27T10:12:20.823Z,102609.25
2023-01-27T10:14:09.711Z,102608.59
2023-01-27T10:16:01.735Z,102611.19
2023-01-27T10:17:52.084Z,102605.19
2023-01-27T10:19:30.054Z,102612.31
2023-01-27T10:21:20.406Z,102616.69
2023-01-27T10:23:15.789Z,102608.03
2023-01-27T10:25:10.958Z,102602.91
2023-01-27T10:26:49.995Z,102602.91
2023-01-27T10:28:24.015Z,102606.47
2023-01-27T10:30:11.354Z,102603.72
2023-01-27T10:32:00.314Z,102605.59
2023-01-27T10:33:34.927Z,102608.09
2023-01-27T10:35:21.257Z,102608.09
2023-01-27T10:37:11.267Z,102612.38
2023-01-27T10:39:05.044Z,102604.69
2023-01-27T10:40:52.328Z,102609.19
2023-01-27T10:42:36.231Z,102598.84
2023-01-27T10:44:13.983Z,102597.00
2023-01-27T10:46:24.073Z,102601.34
2023-01-27T10:48:28.040Z,102597.13
2023-01-27T10:50:38.657Z,102610.22
2023-01-27T10:52:15.242Z,102606.75
2023-01-27T10:54:19.046Z,102602.59
2023-01-27T10:56:30.273Z,102597.41
2023-01-27T10:58:25.902Z,102602.59
2023-01-27T11:02:24.688Z,102588.97
2023-01-27T11:04:19.170Z,102594.22
2023-01-27T11:05:58.552Z,102589.13
2023-01-27T11:07:32.585Z,102592.53
2023-01-27T11:09:22.962Z,102589.03
2023-01-27T11:11:17.119Z,102585.56
2023-01-27T11:12:52.076Z,102590.88
2023-01-27T11:14:37.906Z,102590.88
2023-01-27T11:16:18.755Z,102586.59
2023-01-27T11:18:14.009Z,102583.13
2023-01-27T11:20:01.016Z,102588.38
2023-01-27T11:21:33.419Z,102579.78
2023-01-27T11:23:46.940Z,102579.91
2023-01-27T11:25:30.062Z,102579.91
2023-01-27T11:27:22.289Z,102580.88
2023-01-27T11:29:11.620Z,102586.19
2023-01-27T11:30:51.806Z,102581.81
2023-01-27T11:32:51.521Z,102580.94
2023-01-27T11:34:41.577Z,102583.75
2023-01-27T11:36:14.069Z,102584.56
2023-01-27T11:37:48.556Z,102579.44
2023-01-27T11:39:20.764Z,102583.06
2023-01-27T11:40:53.548Z,102578.84
2023-01-27T11:42:30.618Z,102578.84
2023-01-27T11:44:06.241Z,102575.34
2023-01-27T11:45:39.217Z,102577.13
2023-01-27T11:47:15.919Z,102572.16
2023-01-27T11:48:52.725Z,102570.38
2023-01-27T11:50:32.514Z,102566.00
2023-01-27T11:52:17.190Z,102566.84
2023-01-27T11:53:58.397Z,102570.38
2023-01-27T11:55:36.609Z,102568.59
2023-01-27T11:57:18.612Z,102567.72
2023-01-27T11:59:22.434Z,102570.38
2023-01-27T12:01:00.335Z,102568.00
2023-01-27T12:02:39.093Z,102561.91
2023-01-27T12:04:38.629Z,102561.84
2023-01-27T12:06:18.180Z,102559.13
2023-01-27T12:07:54.748Z,102566.00
2023-01-27T12:09:37.492Z,102564.31
2023-01-27T12:11:29.243Z,102567.84
2023-01-27T12:13:15.591Z,102566.91
2023-01-27T12:14:58.139Z,102561.72
2023-01-27T12:16:45.867Z,102563.41
2023-01-27T12:18:18.127Z,102558.38
2023-01-27T12:19:50.520Z,102555.78
2023-01-27T12:21:35.246Z,102564.50
2023-01-27T12:23:16.671Z,102564.50
2023-01-27T12:24:50.431Z,102559.25
2023-01-27T12:26:49.008Z,102558.38
2023-01-27T12:28:54.231Z,102557.56
2023-01-27T12:30:32.766Z,102554.97
2023-01-27T12:32:15.128Z,102556.59
2023-01-27T12:33:56.350Z,102558.44
2023-01-27T12:35:34.873Z,102554.06
2023-01-27T12:37:08.074Z,102549.78
2023-01-27T12:38:46.142Z,102555.84
2023-01-27T12:40:25.476Z,102554.06
2023-01-27T12:41:58.093Z,102551.56
2023-01-27T12:43:30.346Z,102553.31
2023-01-27T12:45:21.857Z,102548.13
2023-01-27T12:47:03.771Z,102546.53
2023-01-27T12:48:46.396Z,102538.69
2023-01-27T12:50:22.220Z,102542.19
2023-01-27T12:51:55.551Z,102543.78
2023-01-27T12:53:28.292Z,102549.06
2023-01-27T12:55:03.152Z,102546.47
2023-01-27T12:56:35.406Z,102545.78
2023-01-27T12:58:23.751Z,102545.72
2023-01-27T12:59:57.456Z,102550.22
2023-01-27T13:01:35.219Z,102545.16
2023-01-27T13:03:12.016Z,102540.72
2023-01-27T13:04:44.464Z,102544.34
2023-01-27T13:06:17.546Z,102540.94
2023-01-27T13:07:52.986Z,102538.28
2023-01-27T13:09:28.473Z,102540.94
2023-01-27T13:11:02.750Z,102541.00
2023-01-27T13:12:48.323Z,102538.47
2023-01-27T13:14:20.467Z,102535.06
2023-01-27T13:16:01.367Z,102537.72
2023-01-27T13:17:50.840Z,102538.47
2023-01-27T13:19:31.311Z,102542.97
2023-01-27T13:21:18.579Z,102533.41
2023-01-27T13:22:55.032Z,102543.03
2023-01-27T13:24:42.326Z,102550.00
2023-01-27T13:26:21.691Z,102547.34
2023-01-27T13:27:55.791Z,102543.84
2023-01-27T13:29:32.199Z,102551.69
2023-01-27T13:31:10.050Z,102557.00
2023-01-27T13:32:44.207Z,102547.41
2023-01-27T13:34:36.552Z,102549.88
2023-01-27T13:36:30.013Z,102552.38
2023-01-27T13:38:17.802Z,102552.25
2023-01-27T13:39:55.579Z,102554.03
2023-01-27T13:41:48.018Z,102553.13
2023-01-27T13:43:41.678Z,102556.63
2023-01-27T13:45:28.481Z,102557.44
2023-01-27T13:47:05.003Z,102552.19
2023-01-27T13:48:51.489Z,102556.63
2023-01-27T13:50:39.779Z,102559.41
2023-01-27T13:52:12.077Z,102561.13
2023-01-27T13:53:47.330Z,102566.31
2023-01-27T13:55:27.249Z,102569.84
2023-01-27T13:57:18.613Z,102567.13
2023-01-27T13:59:24.385Z,102574.06
2023-01-27T14:01:12.463Z,102566.38
2023-01-27T14:03:17.486Z,102565.63
2023-01-27T14:05:26.828Z,102569.84
2023-01-27T14:07:23.515Z,102569.72
2023-01-27T14:09:32.219Z,102570.53
2023-01-27T14:11:12.986Z,102568.81
2023-01-27T14:12:51.012Z,102571.41
2023-01-27T14:14:56.181Z,102573.88
2023-01-27T14:16:39.057Z,102574.69
2023-01-27T14:18:24.792Z,102573.00
2023-01-27T14:20:05.238Z,102569.50
2023-01-27T14:21:50.713Z,102570.25
2023-01-27T14:24:01.245Z,102573.00
2023-01-27T14:25:44.957Z,102569.59
2023-01-27T14:27:21.880Z,102580.03
2023-01-27T14:29:02.795Z,102573.00
2023-01-27T14:30:45.301Z,102581.59
2023-01-27T14:32:35.580Z,102575.53
2023-01-27T14:34:26.037Z,102580.78
2023-01-27T14:36:21.947Z,102575.66
2023-01-27T14:38:08.848Z,102573.81
2023-01-27T14:39:51.728Z,102573.69
2023-01-27T14:41:46.518Z,102572.03
2023-01-27T14:43:40.205Z,102581.31
2023-01-27T14:45:25.848Z,102583.09
2023-01-27T14:47:08.958Z,102578.59
2023-01-27T14:49:09.916Z,102588.00
2023-01-27T14:51:06.503Z,102582.06
2023-01-27T14:53:06.889Z,102589.72
2023-01-27T14:55:16.172Z,102587.84
2023-01-27T14:56:57.214Z,102588.72
2023-01-27T14:58:50.522Z,102594.00
2023-01-27T15:00:59.999Z,102591.31
2023-01-27T15:02:53.000Z,102598.94
2023-01-27T15:04:30.994Z,102599.69
2023-01-27T15:06:31.619Z,102599.78
2023-01-27T15:08:16.822Z,102604.06
2023-01-27T15:10:20.531Z,102604.06
2023-01-27T15:12:01.174Z,102606.59
2023-01-27T15:13:42.441Z,102603.09
2023-01-27T15:15:51.562Z,102616.00
2023-01-27T15:17:44.599Z,102624.44
2023-01-27T15:19:25.611Z,102615.84
2023-01-27T15:21:09.136Z,102612.31
2023-01-27T15:23:04.442Z,102613.94
2023-01-27T15:24:36.333Z,102625.13
2023-01-27T15:26:09.596Z,102615.66
2023-01-27T15:27:41.770Z,102618.25
2023-01-27T15:29:15.000Z,102623.50
2023-01-27T15:31:15.197Z,102624.38
2023-01-27T15:32:47.378Z,102620.84
2023-01-27T15:34:23.545Z,102623.44
2023-01-27T15:36:19.964Z,102628.59
2023-01-27T15:38:09.756Z,102630.44
2023-01-27T15:40:07.847Z,102632.97
2023-01-27T15:41:52.874Z,102626.84
2023-01-27T15:43:25.752Z,102633.50
2023-01-27T15:45:02.539Z,102640.47
2023-01-27T15:46:36.827Z,102633.50
2023-01-27T15:48:15.645Z,102641.34
2023-01-27T15:49:59.363Z,102636.16
2023-01-27T15:51:36.254Z,102638.00
2023-01-27T15:53:29.410Z,102645.66
2023-01-27T15:55:04.120Z,102642.91
2023-01-27T15:56:45.013Z,102646.47
2023-01-27T15:58:33.542Z,102653.34
2023-01-27T16:00:25.506Z,102655.78
2023-01-27T16:02:19.183Z,102662.59
2023-01-27T16:03:53.197Z,102655.66
2023-01-27T16:06:10.880Z,102659.88
2023-01-27T16:07:42.963Z,102661.50
2023-01-27T16:09:25.019Z,102654.47
2023-01-27T16:11:37.875Z,102651.97
2023-01-27T16:13:23.384Z,102655.28
2023-01-27T16:15:02.044Z,102659.72
2023-01-27T16:16:34.827Z,102663.13
2023-01-27T16:18:06.828Z,102665.72
2023-01-27T16:19:48.314Z,102665.66
2023-01-27T16:21:34.587Z,102667.56
2023-01-27T16:23:12.512Z,102670.22
2023-01-27T16:24:57.063Z,102670.09
2023-01-27T16:26:55.557Z,102673.41
2023-01-27T16:28:31.280Z,102675.06
2023-01-27T16:30:26.883Z,102674.25
2023-01-27T16:32:05.382Z,102671.56
2023-01-27T16:33:42.775Z,102681.03
2023-01-27T16:35:19.781Z,102674.91
2023-01-27T16:37:02.535Z,102679.28
2023-01-27T16:38:39.598Z,102677.50
2023-01-27T16:40:22.950Z,102672.16
2023-01-27T16:41:55.746Z,102674.91
2023-01-27T16:43:49.891Z,102677.28
2023-01-27T16:45:25.375Z,102674.63
2023-01-27T16:47:14.964Z,102678.03
2023-01-27T16:48:49.280Z,102684.22
2023-01-27T16:50:36.066Z,102686.00
2023-01-27T16:52:17.772Z,102683.28
2023-01-27T16:53:51.499Z,102681.50
2023-01-27T16:55:23.501Z,102685.78
2023-01-27T16:56:55.589Z,102691.94
2023-01-27T16:58:39.886Z,102685.78
2023-01-27T17:00:23.175Z,102690.00
2023-01-27T17:02:00.801Z,102695.25
2023-01-27T17:03:38.144Z,102693.56
2023-01-27T17:05:15.889Z,102691.94
2023-01-27T17:06:52.359Z,102699.56
2023-01-27T17:08:26.276Z,102706.31
2023-01-27T17:10:02.599Z,102708.91
2023-01-27T17:11:35.887Z,102702.13
2023-01-27T17:13:27.222Z,102710.78
2023-01-27T17:15:01.021Z,102705.53
2023-01-27T17:16:39.932Z,102706.44
2023-01-27T17:18:12.082Z,102713.22
2023-01-27T17:19:47.982Z,102707.06
2023-01-27T17:21:47.293Z,102707.88
2023-01-27T17:23:34.794Z,102716.69
2023-01-27T17:25:15.691Z,102717.59
2023-01-27T17:26:53.455Z,102713.94
2023-01-27T17:28:31.839Z,102710.47
2023-01-27T17:30:13.989Z,102716.53
2023-01-27T17:31:46.369Z,102707.94
2023-01-27T17:33:20.231Z,102710.53
2023-01-27T17:34:55.141Z,102710.47
2023-01-27T17:36:27.308Z,102710.63
2023-01-27T17:38:05.341Z,102711.50
2023-01-27T17:39:41.276Z,102708.91
2023-01-27T17:41:38.358Z,102711.50
2023-01-27T17:43:23.552Z,102708.84
2023-01-27T17:44:55.706Z,102704.56
2023-01-27T17:46:38.589Z,102704.72
2023-01-27T17:48:11.296Z,102709.03
2023-01-27T17:49:44.728Z,102709.97
2023-01-27T17:51:20.368Z,102708.91
2023-01-27T17:52:54.559Z,102713.47
2023-01-27T17:54:41.707Z,102715.25
2023-01-27T17:56:27.563Z,102725.44
2023-01-27T17:58:11.090Z,102722.69
2023-01-27T17:59:44.338Z,102724.56
2023-01-27T18:01:17.562Z,102723.50
2023-01-27T18:03:01.003Z,102723.66
2023-01-27T18:04:34.695Z,102728.84
2023-01-27T18:06:07.219Z,102720.97
2023-01-27T18:07:39.350Z,102726.06
2023-01-27T18:09:19.996Z,102726.00
2023-01-27T18:10:52.320Z,102730.28
2023-01-27T18:12:55.053Z,102729.41
2023-01-27T18:14:30.524Z,102719.94
2023-01-27T18:16:17.500Z,102729.41
2023-01-27T18:18:03.848Z,102729.41
2023-01-27T18:19:36.032Z,102733.53
2023-01-27T18:21:28.459Z,102735.41
2023-01-27T18:23:01.906Z,102737.16
2023-01-27T18:24:34.298Z,102731.91
2023-01-27T18:26:22.178Z,102735.47
2023-01-27T18:27:56.333Z,102741.63
2023-01-27T18:29:35.569Z,102732.88
2023-01-27T18:31:17.710Z,102734.66
2023-01-27T18:32:54.004Z,102733.84
2023-01-27T18:34:33.032Z,102735.63
2023-01-27T18:36:05.515Z,102736.44
2023-01-27T18:37:39.664Z,102743.41
2023-01-27T18:39:35.133Z,102737.31
2023-01-27T18:41:11.686Z,102742.28
2023-01-27T18:42:44.908Z,102736.28
2023-01-27T18:44:26.979Z,102747.47
2023-01-27T18:45:59.205Z,102749.09
2023-01-27T18:47:34.909Z,102741.09
2023-01-27T18:49:10.685Z,102743.75
2023-01-27T18:50:46.776Z,102739.38
2023-01-27T18:52:19.367Z,102745.31
2023-01-27T18:53:51.588Z,102741.81
2023-01-27T18:55:30.672Z,102746.94
2023-01-27T18:57:06.258Z,102750.31
2023-01-27T18:58:38.837Z,102758.00
2023-01-27T19:00:14.985Z,102757.28